createdAt,value
2019-04-27T00:00:23.800Z,2.90
2019-04-27T00:03:06.206Z,3.07
2019-04-27T00:05:39.231Z,3.13
2019-04-27T00:08:28.497Z,3.00
2019-04-27T00:11:06.898Z,3.33
2019-04-27T00:13:36.339Z,3.20
2019-04-27T00:16:09.955Z,3.20
2019-04-27T00:18:40.584Z,3.30
2019-04-27T00:21:23.675Z,2.70
2019-04-27T00:23:53.182Z,3.30
2019-04-27T00:26:23.327Z,3.50
2019-04-27T00:28:53.628Z,3.13
2019-04-27T00:31:23.419Z,3.20
2019-04-27T00:33:53.594Z,2.83
2019-04-27T00:36:35.179Z,3.30
2019-04-27T00:39:05.310Z,3.33
2019-04-27T00:41:34.045Z,2.90
2019-04-27T00:44:03.403Z,3.47
2019-04-27T00:46:33.059Z,3.33
2019-04-27T00:49:04.650Z,2.97
2019-04-27T00:51:33.413Z,3.10
2019-04-27T00:54:02.076Z,3.17
2019-04-27T00:56:48.694Z,3.13
2019-04-27T00:59:24.615Z,2.77
2019-04-27T01:01:54.736Z,2.90
2019-04-27T01:04:24.898Z,3.07
2019-04-27T01:06:53.935Z,2.73
2019-04-27T01:09:23.682Z,2.80
2019-04-27T01:11:53.449Z,2.90
2019-04-27T01:14:23.058Z,2.57
2019-04-27T01:16:51.797Z,2.90
2019-04-27T01:19:20.382Z,3.00
2019-04-27T01:21:49.658Z,2.53
2019-04-27T01:24:18.914Z,3.03
2019-04-27T01:26:52.401Z,2.97
2019-04-27T01:29:25.370Z,2.80
2019-04-27T01:31:54.021Z,2.70
2019-04-27T01:34:22.458Z,2.90
2019-04-27T01:36:51.110Z,3.00
2019-04-27T01:39:19.918Z,2.93
2019-04-27T01:41:49.138Z,3.23
2019-04-27T01:44:19.348Z,2.53
2019-04-27T01:46:48.706Z,3.33
2019-04-27T01:49:19.260Z,2.80
2019-04-27T01:51:49.256Z,2.67
2019-04-27T01:54:19.709Z,3.03
2019-04-27T01:56:49.288Z,3.00
2019-04-27T01:59:19.783Z,3.30
2019-04-27T02:02:06.486Z,3.07
2019-04-27T02:04:49.396Z,3.50
2019-04-27T02:07:19.171Z,3.23
2019-04-27T02:09:48.650Z,3.73
2019-04-27T02:12:19.070Z,3.17
2019-04-27T02:14:49.105Z,3.17
2019-04-27T02:17:18.727Z,3.17
2019-04-27T02:19:49.283Z,3.93
2019-04-27T02:22:18.713Z,3.20
2019-04-27T02:24:49.117Z,3.10
2019-04-27T02:27:19.287Z,3.00
2019-04-27T02:29:50.460Z,2.70
2019-04-27T02:32:35.721Z,2.90
2019-04-27T02:35:05.875Z,3.20
2019-04-27T02:37:34.362Z,2.60
2019-04-27T02:40:03.012Z,2.97
2019-04-27T02:42:33.215Z,2.87
2019-04-27T02:45:01.673Z,3.00
2019-04-27T02:47:30.290Z,3.40
2019-04-27T02:50:00.610Z,3.70
2019-04-27T02:52:30.601Z,2.83
2019-04-27T02:54:59.447Z,3.00
2019-04-27T02:57:30.155Z,3.17
2019-04-27T02:59:59.994Z,3.07
2019-04-27T03:02:35.704Z,3.10
2019-04-27T03:05:05.453Z,3.20
2019-04-27T03:07:34.099Z,3.60
2019-04-27T03:10:02.869Z,3.30
2019-04-27T03:12:33.036Z,3.30
2019-04-27T03:15:20.515Z,3.50
2019-04-27T03:18:09.896Z,3.73
2019-04-27T03:20:45.492Z,2.70
2019-04-27T03:23:14.663Z,3.00
2019-04-27T03:25:50.398Z,3.10
2019-04-27T03:28:20.058Z,3.10
2019-04-27T03:30:51.600Z,3.40
2019-04-27T03:33:21.486Z,3.23
2019-04-27T03:35:52.488Z,3.23
2019-04-27T03:38:19.757Z,3.17
2019-04-27T03:40:50.618Z,3.43
2019-04-27T03:43:22.882Z,3.47
2019-04-27T03:45:52.450Z,3.33
2019-04-27T03:48:21.429Z,3.57
2019-04-27T03:51:09.711Z,3.73
2019-04-27T03:53:39.823Z,3.93
2019-04-27T03:56:10.297Z,3.93
2019-04-27T03:58:52.369Z,4.40
2019-04-27T04:01:21.009Z,4.33
2019-04-27T04:03:50.243Z,3.87
2019-04-27T04:06:19.400Z,4.00
2019-04-27T04:08:50.620Z,3.90
2019-04-27T04:11:25.991Z,4.57
2019-04-27T04:13:56.199Z,4.80
2019-04-27T04:16:29.697Z,4.40
2019-04-27T04:19:00.978Z,4.77
2019-04-27T04:21:30.183Z,4.10
2019-04-27T04:24:01.009Z,4.27
2019-04-27T04:26:32.171Z,4.73
2019-04-27T04:28:59.851Z,4.50
2019-04-27T04:31:29.797Z,4.57
2019-04-27T04:33:59.686Z,5.37
2019-04-27T04:36:30.148Z,4.53
2019-04-27T04:39:00.433Z,4.93
2019-04-27T04:41:36.390Z,5.60
2019-04-27T04:44:22.702Z,5.60
2019-04-27T04:46:52.902Z,4.87
2019-04-27T04:49:21.365Z,5.37
2019-04-27T04:51:51.837Z,5.63
2019-04-27T04:54:24.191Z,5.60
2019-04-27T04:56:50.507Z,5.97
2019-04-27T04:59:20.124Z,5.47
2019-04-27T05:01:49.992Z,5.90
2019-04-27T05:04:19.346Z,6.33
2019-04-27T05:06:49.243Z,6.57
2019-04-27T05:09:19.360Z,6.60
2019-04-27T05:11:48.702Z,6.63
2019-04-27T05:14:17.329Z,6.23
2019-04-27T05:16:45.817Z,6.57
2019-04-27T05:19:14.294Z,6.27
2019-04-27T05:21:42.803Z,6.57
2019-04-27T05:24:11.284Z,7.23
2019-04-27T05:26:39.935Z,7.10
2019-04-27T05:29:09.112Z,7.33
2019-04-27T05:31:38.790Z,6.47
2019-04-27T05:34:09.367Z,6.60
2019-04-27T05:36:41.825Z,6.07
2019-04-27T05:39:10.704Z,5.30
2019-04-27T05:41:41.668Z,6.13
2019-04-27T05:44:12.972Z,5.77
2019-04-27T05:46:55.485Z,5.20
2019-04-27T05:49:36.291Z,4.50
2019-04-27T05:52:10.241Z,4.50
2019-04-27T05:54:38.214Z,4.00
2019-04-27T05:57:06.938Z,3.80
2019-04-27T05:59:35.542Z,4.57
2019-04-27T06:02:04.303Z,3.80
2019-04-27T06:04:32.802Z,3.87
2019-04-27T06:07:01.453Z,3.97
2019-04-27T06:09:29.947Z,4.13
2019-04-27T06:11:59.036Z,4.23
2019-04-27T06:14:29.222Z,3.50
2019-04-27T06:16:59.564Z,3.53
2019-04-27T06:19:29.118Z,3.57
2019-04-27T06:21:59.441Z,3.30
2019-04-27T06:24:29.784Z,3.73
2019-04-27T06:26:59.685Z,3.20
2019-04-27T06:29:29.286Z,3.47
2019-04-27T06:31:59.347Z,3.43
2019-04-27T06:34:30.508Z,3.67
2019-04-27T06:36:59.970Z,3.50
2019-04-27T06:39:29.768Z,3.40
2019-04-27T06:42:00.868Z,2.90
2019-04-27T06:44:29.371Z,3.17
2019-04-27T06:46:59.154Z,3.73
2019-04-27T06:49:29.509Z,3.30
2019-04-27T06:51:58.658Z,3.27
2019-04-27T06:54:28.925Z,3.53
2019-04-27T06:56:59.203Z,4.03
2019-04-27T06:59:28.987Z,3.20
2019-04-27T07:01:59.264Z,3.00
2019-04-27T07:04:29.443Z,3.00
2019-04-27T07:06:59.489Z,3.20
2019-04-27T07:09:29.529Z,2.80
2019-04-27T07:11:59.311Z,4.80
2019-04-27T07:14:29.491Z,4.07
2019-04-27T07:16:59.159Z,3.37
2019-04-27T07:19:29.303Z,4.60
2019-04-27T07:21:59.401Z,3.20
2019-04-27T07:24:29.188Z,3.00
2019-04-27T07:26:59.649Z,3.10
2019-04-27T07:29:29.254Z,3.50
2019-04-27T07:31:59.654Z,2.90
2019-04-27T07:34:28.611Z,4.13
2019-04-27T07:36:59.792Z,3.77
2019-04-27T07:39:29.370Z,3.10
2019-04-27T07:41:58.541Z,3.70
2019-04-27T07:44:31.800Z,4.63
2019-04-27T07:47:16.971Z,3.10
2019-04-27T07:49:49.669Z,3.53
2019-04-27T07:52:20.420Z,4.20
2019-04-27T07:54:49.517Z,3.60
2019-04-27T07:57:19.779Z,3.87
2019-04-27T07:59:50.244Z,4.10
2019-04-27T08:02:19.166Z,3.33
2019-04-27T08:04:50.295Z,2.80
2019-04-27T08:07:19.893Z,2.30
2019-04-27T08:09:49.581Z,2.10
2019-04-27T08:12:20.679Z,3.47
2019-04-27T08:14:50.583Z,3.57
2019-04-27T08:17:19.806Z,2.60
2019-04-27T08:19:57.445Z,3.13
2019-04-27T08:22:25.962Z,3.43
2019-04-27T08:24:54.514Z,3.67
2019-04-27T08:27:30.479Z,2.70
2019-04-27T08:30:06.478Z,3.90
2019-04-27T08:32:36.670Z,3.30
2019-04-27T08:35:06.865Z,2.73
2019-04-27T08:37:35.314Z,3.47
2019-04-27T08:40:05.603Z,4.40
2019-04-27T08:42:34.306Z,3.93
2019-04-27T08:45:03.101Z,3.90
2019-04-27T08:47:31.600Z,3.57
2019-04-27T08:50:00.209Z,3.30
2019-04-27T08:52:30.131Z,3.93
2019-04-27T08:54:59.424Z,3.77
2019-04-27T08:57:29.010Z,4.00
2019-04-27T08:59:59.617Z,3.37
2019-04-27T09:02:42.055Z,2.63
2019-04-27T09:05:01.764Z,3.80
2019-04-27T09:07:40.884Z,4.03
2019-04-27T09:10:19.610Z,3.80
2019-04-27T09:13:01.501Z,3.57
2019-04-27T09:15:42.648Z,3.10
2019-04-27T09:18:14.920Z,5.23
2019-04-27T09:20:45.041Z,4.00
2019-04-27T09:23:13.487Z,4.40
2019-04-27T09:25:41.998Z,3.40
2019-04-27T09:28:10.439Z,2.97
2019-04-27T09:30:40.181Z,3.60
2019-04-27T09:33:08.804Z,4.30
2019-04-27T09:35:38.428Z,3.03
2019-04-27T09:38:07.133Z,3.10
2019-04-27T09:40:36.126Z,3.07
2019-04-27T09:43:10.729Z,3.57
2019-04-27T09:45:34.891Z,3.70
2019-04-27T09:48:06.639Z,2.37
2019-04-27T09:50:40.870Z,3.27
2019-04-27T09:53:09.411Z,2.30
2019-04-27T09:55:39.626Z,2.07
2019-04-27T09:58:08.090Z,2.30
2019-04-27T10:00:36.729Z,2.40
2019-04-27T10:03:06.947Z,3.07
2019-04-27T10:05:36.682Z,2.87
2019-04-27T10:08:06.162Z,2.93
2019-04-27T10:10:34.838Z,3.10
2019-04-27T10:13:03.380Z,3.03
2019-04-27T10:15:32.030Z,2.63
2019-04-27T10:18:00.637Z,2.23
2019-04-27T10:20:29.242Z,3.27
2019-04-27T10:22:59.215Z,3.23
2019-04-27T10:25:28.953Z,2.83
2019-04-27T10:28:00.224Z,2.90
2019-04-27T10:30:29.428Z,2.73
2019-04-27T10:32:57.987Z,2.70
2019-04-27T10:35:26.541Z,2.93
2019-04-27T10:37:55.154Z,1.30
2019-04-27T10:40:23.678Z,2.10
2019-04-27T10:42:52.145Z,2.00
2019-04-27T10:45:20.699Z,2.47
2019-04-27T10:47:49.625Z,1.80
2019-04-27T10:50:18.417Z,1.53
2019-04-27T10:52:53.721Z,2.00
2019-04-27T10:55:18.002Z,2.10
2019-04-27T10:57:46.513Z,1.97
2019-04-27T11:00:16.812Z,1.17
2019-04-27T11:02:45.399Z,1.73
2019-04-27T11:05:31.200Z,1.47
2019-04-27T11:08:00.692Z,1.37
2019-04-27T11:10:29.289Z,1.30
2019-04-27T11:12:57.802Z,1.23
2019-04-27T11:15:26.530Z,1.83
2019-04-27T11:17:56.183Z,2.97
2019-04-27T11:20:27.447Z,2.20
2019-04-27T11:23:06.587Z,2.33
2019-04-27T11:25:26.382Z,2.03
2019-04-27T11:27:57.557Z,2.63
2019-04-27T11:30:25.370Z,2.10
2019-04-27T11:32:56.691Z,2.30
2019-04-27T11:35:25.847Z,2.40
2019-04-27T11:37:55.879Z,2.43
2019-04-27T11:40:24.427Z,2.33
2019-04-27T11:42:52.929Z,2.83
2019-04-27T11:45:21.460Z,4.07
2019-04-27T11:47:49.970Z,3.27
2019-04-27T11:50:20.172Z,2.70
2019-04-27T11:52:52.282Z,3.10
2019-04-27T11:55:21.042Z,3.30
2019-04-27T11:57:49.552Z,2.70
2019-04-27T12:00:20.256Z,3.00
2019-04-27T12:02:48.735Z,3.90
2019-04-27T12:05:17.718Z,2.50
2019-04-27T12:07:47.862Z,3.13
2019-04-27T12:10:16.505Z,2.63
2019-04-27T12:12:46.324Z,4.33
2019-04-27T12:15:18.454Z,2.87
2019-04-27T12:17:46.996Z,4.77
2019-04-27T12:20:16.034Z,3.00
2019-04-27T12:22:45.764Z,4.10
2019-04-27T12:25:14.496Z,3.20
2019-04-27T12:27:47.540Z,3.50
2019-04-27T12:30:23.996Z,3.47
2019-04-27T12:32:52.557Z,3.37
2019-04-27T12:35:21.030Z,2.93
2019-04-27T12:37:49.712Z,3.23
2019-04-27T12:40:18.286Z,2.60
2019-04-27T12:42:47.209Z,3.50
2019-04-27T12:45:16.703Z,3.00
2019-04-27T12:47:46.476Z,4.37
2019-04-27T12:50:17.075Z,3.30
2019-04-27T12:52:46.898Z,2.50
2019-04-27T12:55:33.602Z,3.77
2019-04-27T12:58:03.948Z,4.07
2019-04-27T13:00:34.137Z,3.17
2019-04-27T13:03:02.703Z,3.03
2019-04-27T13:05:31.180Z,3.67
2019-04-27T13:07:59.679Z,3.33
2019-04-27T13:10:28.313Z,3.43
2019-04-27T13:12:56.840Z,3.23
2019-04-27T13:15:26.509Z,2.93
2019-04-27T13:17:57.245Z,3.83
2019-04-27T13:20:25.741Z,3.63
2019-04-27T13:22:54.350Z,3.27
2019-04-27T13:25:22.817Z,2.93
2019-04-27T13:27:51.334Z,3.27
2019-04-27T13:30:20.716Z,2.37
2019-04-27T13:32:49.234Z,2.00
2019-04-27T13:35:17.858Z,1.87
2019-04-27T13:37:46.813Z,1.90
2019-04-27T13:40:17.065Z,2.13
2019-04-27T13:42:47.555Z,1.70
2019-04-27T13:45:35.877Z,2.13
2019-04-27T13:48:26.093Z,2.47
2019-04-27T13:50:56.559Z,2.23
2019-04-27T13:53:26.228Z,1.93
2019-04-27T13:55:56.633Z,3.10
2019-04-27T13:58:24.987Z,2.30
2019-04-27T14:00:53.521Z,2.70
2019-04-27T14:03:22.045Z,3.27
2019-04-27T14:05:52.475Z,3.20
2019-04-27T14:08:20.847Z,3.00
2019-04-27T14:10:51.309Z,3.00
2019-04-27T14:13:19.765Z,2.73
2019-04-27T14:15:49.082Z,2.30
2019-04-27T14:18:19.076Z,2.67
2019-04-27T14:20:48.674Z,3.00
2019-04-27T14:23:19.363Z,2.50
2019-04-27T14:25:47.827Z,2.03
2019-04-27T14:28:25.071Z,2.87
2019-04-27T14:30:54.439Z,2.90
2019-04-27T14:33:22.958Z,3.57
2019-04-27T14:35:51.593Z,3.57
2019-04-27T14:38:20.298Z,3.07
2019-04-27T14:40:50.407Z,4.80
2019-04-27T14:43:19.183Z,2.97
2019-04-27T14:45:48.593Z,3.13
2019-04-27T14:48:18.489Z,4.00
2019-04-27T14:50:48.546Z,3.77
2019-04-27T14:53:17.447Z,3.80
2019-04-27T14:55:48.864Z,3.87
2019-04-27T14:58:19.166Z,3.93
2019-04-27T15:00:47.511Z,3.83
2019-04-27T15:03:16.007Z,3.53
2019-04-27T15:05:44.474Z,3.20
2019-04-27T15:08:13.992Z,3.10
2019-04-27T15:10:42.666Z,4.07
2019-04-27T15:13:13.354Z,4.23
2019-04-27T15:15:42.075Z,3.67
2019-04-27T15:18:10.824Z,4.83
2019-04-27T15:20:44.515Z,2.97
2019-04-27T15:23:14.953Z,2.90
2019-04-27T15:25:46.821Z,2.73
2019-04-27T15:28:15.502Z,3.63
2019-04-27T15:31:00.934Z,4.00
2019-04-27T15:33:46.748Z,4.30
2019-04-27T15:36:34.687Z,3.03
2019-04-27T15:39:10.892Z,4.97
2019-04-27T15:41:41.131Z,4.03
2019-04-27T15:44:18.821Z,3.93
2019-04-27T15:46:47.962Z,3.67
2019-04-27T15:49:17.936Z,4.43
2019-04-27T15:51:46.650Z,4.80
2019-04-27T15:54:15.150Z,5.40
2019-04-27T15:56:43.851Z,4.70
2019-04-27T15:59:15.941Z,5.50
2019-04-27T16:01:44.749Z,4.33
2019-04-27T16:04:14.771Z,3.70
2019-04-27T16:06:47.441Z,3.90
2019-04-27T16:09:15.998Z,4.17
2019-04-27T16:11:50.279Z,4.47
2019-04-27T16:14:15.396Z,4.00
2019-04-27T16:16:44.375Z,5.87
2019-04-27T16:19:12.990Z,4.30
2019-04-27T16:21:47.805Z,3.70
2019-04-27T16:24:17.037Z,4.23
2019-04-27T16:26:51.061Z,3.60
2019-04-27T16:29:18.530Z,3.87
2019-04-27T16:31:48.080Z,4.43
2019-04-27T16:34:18.467Z,3.80
2019-04-27T16:36:47.310Z,5.57
2019-04-27T16:39:15.879Z,3.50
2019-04-27T16:41:50.013Z,4.03
2019-04-27T16:44:18.356Z,4.70
2019-04-27T16:46:54.146Z,4.07
2019-04-27T16:49:26.052Z,3.90
2019-04-27T16:51:56.366Z,3.60
2019-04-27T16:54:28.267Z,4.20
2019-04-27T16:57:03.176Z,3.70
2019-04-27T16:59:43.318Z,3.90
2019-04-27T17:02:08.022Z,3.60
2019-04-27T17:04:38.793Z,3.97
2019-04-27T17:07:18.781Z,3.33
2019-04-27T17:09:46.586Z,2.90
2019-04-27T17:12:18.048Z,3.43
2019-04-27T17:14:58.087Z,3.70
2019-04-27T17:17:35.672Z,3.27
2019-04-27T17:20:13.070Z,4.17
2019-04-27T17:22:45.714Z,3.50
2019-04-27T17:25:23.298Z,3.43
2019-04-27T17:27:57.814Z,4.00
2019-04-27T17:30:26.562Z,3.90
2019-04-27T17:33:10.285Z,3.40
2019-04-27T17:35:34.686Z,3.60
2019-04-27T17:38:03.648Z,3.47
2019-04-27T17:40:34.358Z,4.97
2019-04-27T17:43:06.993Z,3.80
2019-04-27T17:45:36.193Z,3.60
2019-04-27T17:48:06.865Z,4.77
2019-04-27T17:50:34.125Z,3.90
2019-04-27T17:53:02.714Z,3.40
2019-04-27T17:55:31.206Z,2.83
2019-04-27T17:58:05.316Z,3.43
2019-04-27T18:00:32.915Z,3.63
2019-04-27T18:03:00.279Z,3.33
2019-04-27T18:05:28.726Z,3.00
2019-04-27T18:07:57.998Z,3.40
2019-04-27T18:10:28.188Z,3.30
2019-04-27T18:12:58.296Z,3.73
2019-04-27T18:15:28.746Z,4.33
2019-04-27T18:17:58.996Z,3.40
2019-04-27T18:20:29.594Z,4.10
2019-04-27T18:23:08.886Z,3.50
2019-04-27T18:25:40.459Z,4.13
2019-04-27T18:28:15.110Z,4.37
2019-04-27T18:30:59.461Z,3.10
2019-04-27T18:33:28.455Z,3.13
2019-04-27T18:36:05.080Z,3.47
2019-04-27T18:38:30.765Z,4.13
2019-04-27T18:40:58.912Z,3.70
2019-04-27T18:43:28.621Z,3.50
2019-04-27T18:45:58.721Z,5.30
2019-04-27T18:48:32.001Z,4.80
2019-04-27T18:51:02.185Z,4.17
2019-04-27T18:53:32.413Z,4.07
2019-04-27T18:56:05.086Z,4.37
2019-04-27T18:58:31.055Z,3.40
2019-04-27T19:00:59.769Z,3.93
2019-04-27T19:03:31.523Z,4.57
2019-04-27T19:05:58.518Z,4.10
2019-04-27T19:08:28.125Z,4.40
2019-04-27T19:11:00.067Z,4.07
2019-04-27T19:13:27.061Z,3.80
2019-04-27T19:15:55.524Z,4.23
2019-04-27T19:18:24.360Z,4.93
2019-04-27T19:20:55.404Z,4.00
2019-04-27T19:23:24.002Z,5.30
2019-04-27T19:25:58.551Z,4.07
2019-04-27T19:28:48.309Z,4.07
2019-04-27T19:31:19.122Z,5.63
2019-04-27T19:33:48.428Z,6.30
2019-04-27T19:36:19.090Z,5.60
2019-04-27T19:38:47.881Z,3.67
2019-04-27T19:41:18.433Z,4.33
2019-04-27T19:43:48.860Z,4.03
2019-04-27T19:46:20.039Z,4.60
2019-04-27T19:48:50.059Z,3.53
2019-04-27T19:51:19.333Z,4.20
2019-04-27T19:53:47.810Z,3.73
2019-04-27T19:56:16.325Z,4.23
2019-04-27T19:58:49.429Z,5.27
2019-04-27T20:01:19.558Z,4.67
2019-04-27T20:03:52.383Z,4.70
2019-04-27T20:06:22.272Z,3.83
2019-04-27T20:08:58.310Z,5.00
2019-04-27T20:11:27.040Z,3.67
2019-04-27T20:13:55.588Z,3.83
2019-04-27T20:16:24.059Z,4.33
2019-04-27T20:18:52.645Z,4.83
2019-04-27T20:21:21.368Z,4.33
2019-04-27T20:23:50.737Z,4.00
2019-04-27T20:26:19.243Z,3.97
2019-04-27T20:28:47.801Z,3.70
2019-04-27T20:31:16.241Z,4.43
2019-04-27T20:33:44.848Z,4.60
2019-04-27T20:36:13.306Z,3.97
2019-04-27T20:38:43.539Z,3.67
2019-04-27T20:41:12.141Z,4.13
2019-04-27T20:43:42.033Z,3.90
2019-04-27T20:46:15.172Z,3.87
2019-04-27T20:48:44.506Z,4.13
2019-04-27T20:51:13.159Z,3.57
2019-04-27T20:53:52.171Z,4.23
2019-04-27T20:56:20.673Z,5.70
2019-04-27T20:58:50.980Z,4.50
2019-04-27T21:01:19.595Z,4.40
2019-04-27T21:03:51.168Z,4.40
2019-04-27T21:06:33.566Z,4.13
2019-04-27T21:09:03.002Z,3.97
2019-04-27T21:11:33.350Z,3.97
2019-04-27T21:14:01.973Z,4.50
2019-04-27T21:16:31.365Z,3.77
2019-04-27T21:19:01.704Z,4.00
2019-04-27T21:21:30.360Z,3.70
2019-04-27T21:23:59.870Z,4.30
2019-04-27T21:26:28.511Z,5.17
2019-04-27T21:28:57.004Z,5.07
2019-04-27T21:31:25.539Z,4.60
2019-04-27T21:33:54.108Z,4.00
2019-04-27T21:36:22.705Z,3.60
2019-04-27T21:38:51.363Z,4.30
2019-04-27T21:41:20.914Z,3.70
2019-04-27T21:43:51.202Z,4.13
2019-04-27T21:46:21.032Z,4.07
2019-04-27T21:48:50.042Z,4.00
2019-04-27T21:51:18.503Z,4.13
2019-04-27T21:53:48.582Z,3.80
2019-04-27T21:56:17.213Z,3.90
2019-04-27T21:58:45.677Z,4.17
2019-04-27T22:01:21.894Z,3.50
2019-04-27T22:03:50.635Z,3.60
2019-04-27T22:06:20.707Z,4.43
2019-04-27T22:08:51.024Z,4.00
2019-04-27T22:11:19.312Z,4.13
2019-04-27T22:13:47.847Z,4.10
2019-04-27T22:16:16.341Z,4.17
2019-04-27T22:18:44.997Z,4.10
2019-04-27T22:21:13.435Z,3.23
2019-04-27T22:23:46.302Z,3.97
2019-04-27T22:26:15.179Z,4.13
2019-04-27T22:28:49.095Z,3.73
2019-04-27T22:31:13.869Z,4.37
2019-04-27T22:33:42.945Z,3.83
2019-04-27T22:36:11.770Z,3.93
2019-04-27T22:38:41.287Z,3.87
2019-04-27T22:41:14.455Z,4.80
2019-04-27T22:43:44.544Z,4.37
2019-04-27T22:46:14.691Z,3.83
2019-04-27T22:48:43.193Z,4.43
2019-04-27T22:51:11.776Z,3.67
2019-04-27T22:53:41.061Z,4.23
2019-04-27T22:56:15.718Z,3.00
2019-04-27T22:59:03.987Z,3.43
2019-04-27T23:01:44.098Z,4.10
2019-04-27T23:04:14.304Z,3.57
2019-04-27T23:06:42.754Z,4.50
2019-04-27T23:09:11.797Z,4.17
2019-04-27T23:11:41.462Z,4.27
2019-04-27T23:14:11.085Z,3.90
2019-04-27T23:16:42.133Z,3.83
2019-04-27T23:19:10.957Z,4.03
2019-04-27T23:21:39.485Z,3.27
2019-04-27T23:24:08.079Z,4.13
2019-04-27T23:26:36.559Z,3.47
2019-04-27T23:29:13.686Z,3.77
2019-04-27T23:31:36.929Z,3.17
2019-04-27T23:34:05.353Z,3.97
2019-04-27T23:36:33.839Z,4.33
2019-04-27T23:39:02.316Z,3.97
2019-04-27T23:41:30.886Z,3.87
2019-04-27T23:43:59.333Z,3.00
2019-04-27T23:46:27.899Z,3.00
2019-04-27T23:48:56.361Z,3.73
2019-04-27T23:51:26.455Z,3.87
2019-04-27T23:53:54.918Z,3.17
2019-04-27T23:56:23.369Z,4.27
2019-04-27T23:58:51.950Z,3.10
